Time;durP1;ratioP1;P1;durP2;ratioP2;P2;SDS_P1;SDS_P2;PMS_P1;PMS_P2;Temp;Humidity;BMP_temperature;BMP_pressure;BME280_temperature;BME280_humidity;BME280_pressure;Samples;Min_cycle;Max_cycle;Signal;HPM_P1;HPM_P2
2023/08/16 00:01:23;;;;;;;3.88;3.40;;;;;;;-141.84;93.58;20925.69;5043968;28;20602;-61
2023/08/16 00:03:53;;;;;;;3.75;3.30;;;;;;;-141.84;93.40;20899.28;5036421;28;20748;-59
2023/08/16 00:06:22;;;;;;;4.07;3.78;;;;;;;-141.84;93.25;20944.00;5043833;28;20237;-60
2023/08/16 00:08:53;;;;;;;3.83;3.45;;;;;;;-141.84;93.21;20878.94;5043976;28;20237;-61
2023/08/16 00:11:21;;;;;;;3.58;3.28;;;;;;;-141.84;93.99;20860.66;5044165;28;20232;-61
2023/08/16 00:13:50;;;;;;;4.70;3.70;;;;;;;-141.84;94.76;20836.25;5035261;28;20279;-59
2023/08/16 00:16:18;;;;;;;4.05;3.38;;;;;;;-141.84;95.30;20874.88;5043972;28;20225;-60
2023/08/16 00:18:47;;;;;;;4.63;4.00;;;;;;;-141.84;95.57;20850.47;5043935;28;20233;-59
2023/08/16 00:21:17;;;;;;;3.78;3.42;;;;;;;-141.84;95.80;20832.19;5043890;28;20299;-64
2023/08/16 00:23:46;;;;;;;4.68;4.28;;;;;;;-141.84;96.06;20842.34;5036322;28;20232;-64
2023/08/16 00:26:14;;;;;;;5.68;4.38;;;;;;;-141.84;96.21;20824.06;5044005;28;20252;-62
2023/08/16 00:28:45;;;;;;;5.32;4.20;;;;;;;-141.84;96.31;20787.47;5043342;28;20253;-64
2023/08/16 00:31:13;;;;;;;4.72;4.20;;;;;;;-141.84;96.67;20801.69;5049605;28;20201;-62
2023/08/16 00:33:42;;;;;;;4.07;3.65;;;;;;;-141.84;96.95;20761.03;5041935;28;20209;-61
2023/08/16 00:36:10;;;;;;;4.70;3.90;;;;;;;-141.84;97.46;20750.88;5040773;28;20324;-62
2023/08/16 00:38:42;;;;;;;5.07;4.57;;;;;;;-141.84;97.87;20740.69;5042963;28;20323;-59
2023/08/16 00:41:11;;;;;;;5.47;4.40;;;;;;;-141.84;98.22;20712.25;5043255;28;20325;-59
2023/08/16 00:43:40;;;;;;;6.20;5.25;;;;;;;-141.84;98.44;20732.56;5043590;28;20249;-60
2023/08/16 00:46:12;;;;;;;7.03;5.25;;;;;;;-141.84;98.01;20732.56;5043572;28;20278;-61
2023/08/16 00:48:44;;;;;;;5.85;5.22;;;;;;;-141.84;98.22;20746.81;5043615;28;20263;-59
2023/08/16 00:51:13;;;;;;;6.10;5.50;;;;;;;-141.84;98.62;20712.25;5043350;28;20312;-61
2023/08/16 00:53:44;;;;;;;7.47;5.05;;;;;;;-141.84;98.62;20683.78;5042585;28;20653;-61
2023/08/16 00:56:14;;;;;;;7.20;5.70;;;;;;;-141.84;98.80;20691.91;5043277;28;20320;-60
2023/08/16 00:58:43;;;;;;;5.80;5.30;;;;;;;-141.84;98.94;20683.78;5042901;28;20253;-60
2023/08/16 01:01:12;;;;;;;7.15;5.30;;;;;;;-141.84;99.13;20675.66;5042782;28;20754;-59
2023/08/16 01:03:41;;;;;;;7.40;5.60;;;;;;;-141.84;99.66;20683.78;5043116;28;20279;-60
2023/08/16 01:06:10;;;;;;;6.88;6.07;;;;;;;-141.84;99.75;20659.38;5042278;28;20229;-60
2023/08/16 01:08:39;;;;;;;7.72;6.25;;;;;;;-141.84;100.00;20685.81;5042404;28;20952;-60
2023/08/16 01:11:17;;;;;;;6.35;5.72;;;;;;;-141.84;99.89;20683.78;5042305;28;20265;-61
2023/08/16 01:13:54;;;;;;;7.78;6.00;;;;;;;-141.84;100.00;20687.84;5034968;28;20288;-61
2023/08/16 01:16:24;;;;;;;7.20;6.22;;;;;;;-141.84;100.00;20639.06;5043117;28;20303;-61
2023/08/16 01:18:54;;;;;;;7.13;6.43;;;;;;;-141.84;100.00;20649.22;5043259;28;20216;-59
2023/08/16 01:21:25;;;;;;;7.88;6.85;;;;;;;-141.84;100.00;20641.09;5042925;28;20304;-61
2023/08/16 01:24:04;;;;;;;8.20;6.70;;;;;;;-141.84;100.00;20606.53;5034540;28;20718;-59
2023/08/16 01:26:36;;;;;;;7.50;6.65;;;;;;;-141.84;100.00;20618.72;5042025;28;20232;-61
2023/08/16 01:29:06;;;;;;;7.20;6.53;;;;;;;-141.84;100.00;20614.66;5042550;28;20257;-61
2023/08/16 01:31:35;;;;;;;7.15;6.45;;;;;;;-141.84;100.00;20578.09;5061980;28;20230;-61
2023/08/16 01:34:04;;;;;;;8.15;7.35;;;;;;;-141.84;100.00;20539.47;5041478;28;20224;-60
2023/08/16 01:36:32;;;;;;;8.00;7.20;;;;;;;-141.84;100.00;20551.66;5043146;28;20212;-62
2023/08/16 01:39:01;;;;;;;9.38;7.68;;;;;;;-141.84;100.00;20557.75;5042524;28;20362;-61
2023/08/16 01:41:38;;;;;;;7.82;7.13;;;;;;;-141.84;100.00;20545.56;5042673;28;20267;-60
2023/08/16 01:44:08;;;;;;;8.70;7.57;;;;;;;-141.84;100.00;20547.59;5034944;28;20795;-60
2023/08/16 01:46:39;;;;;;;8.48;7.57;;;;;;;-141.84;100.00;20555.72;5042837;28;20252;-60
2023/08/16 01:49:10;;;;;;;9.50;7.90;;;;;;;-141.84;100.00;20531.31;5042329;28;20673;-60
2023/08/16 01:51:39;;;;;;;8.90;7.15;;;;;;;-141.84;100.00;20533.34;5043045;28;20201;-61
2023/08/16 01:54:08;;;;;;;7.82;7.03;;;;;;;-141.84;100.00;20561.81;5035714;28;20237;-61
2023/08/16 01:56:37;;;;;;;7.75;7.00;;;;;;;-141.84;100.00;20527.25;5042172;28;20267;-60
2023/08/16 01:59:06;;;;;;;8.15;7.35;;;;;;;-141.84;100.00;20484.56;5041977;28;20481;-60
2023/08/16 02:01:34;;;;;;;8.07;7.20;;;;;;;-141.84;100.00;20515.06;5042112;28;20312;-63
2023/08/16 02:04:03;;;;;;;7.85;6.97;;;;;;;-141.84;100.00;20478.47;5034432;28;20684;-59
2023/08/16 02:06:32;;;;;;;7.43;6.72;;;;;;;-141.84;100.00;20504.91;5042666;28;20688;-59
2023/08/16 02:09:00;;;;;;;9.80;8.45;;;;;;;-141.84;100.00;20480.50;5041720;28;20257;-60
2023/08/16 02:11:31;;;;;;;8.25;6.95;;;;;;;-141.84;100.00;20504.91;5043019;28;20237;-61
2023/08/16 02:14:00;;;;;;;7.93;7.13;;;;;;;-141.84;100.00;20445.94;5054773;28;20232;-61
2023/08/16 02:16:29;;;;;;;7.18;6.47;;;;;;;-141.84;100.00;20468.31;5062281;28;20657;-60
2023/08/16 02:18:57;;;;;;;7.43;6.63;;;;;;;-141.84;100.00;20409.38;5062034;28;20228;-61
2023/08/16 02:21:26;;;;;;;9.07;7.63;;;;;;;-141.84;100.00;20429.69;5062520;28;20300;-61
2023/08/16 02:23:54;;;;;;;7.10;6.47;;;;;;;-141.84;100.00;20429.69;5054651;28;20319;-60
2023/08/16 02:26:23;;;;;;;7.50;6.80;;;;;;;-141.84;100.00;20452.06;5045034;28;20311;-59
2023/08/16 02:28:52;;;;;;;7.70;7.00;;;;;;;-141.84;100.00;20429.69;5041749;28;20663;-60
2023/08/16 02:31:22;;;;;;;8.75;7.43;;;;;;;-141.84;100.00;20486.59;5056835;28;20225;-60
2023/08/16 02:33:50;;;;;;;8.68;7.43;;;;;;;-141.84;100.00;20468.31;5043599;28;20213;-60
2023/08/16 02:36:19;;;;;;;8.15;7.35;;;;;;;-141.84;100.00;20492.72;5043463;28;20247;-61
2023/08/16 02:38:47;;;;;;;7.35;6.65;;;;;;;-141.84;100.00;20447.97;5045956;28;20283;-60
2023/08/16 02:41:16;;;;;;;10.52;7.47;;;;;;;-141.84;100.00;20441.88;5045305;28;20720;-60
2023/08/16 02:43:44;;;;;;;8.55;7.65;;;;;;;-141.84;100.00;20452.06;5037989;28;20316;-63
2023/08/16 02:46:13;;;;;;;9.30;7.95;;;;;;;-141.84;100.00;20445.94;5045535;28;20217;-60
2023/08/16 02:48:43;;;;;;;9.07;7.80;;;;;;;-141.84;100.00;20415.47;5045627;28;20205;-61
2023/08/16 02:51:11;;;;;;;8.98;7.97;;;;;;;-141.84;100.00;20413.44;5045055;28;20225;-61
2023/08/16 02:53:40;;;;;;;8.60;7.72;;;;;;;-141.84;100.00;20399.19;5045262;28;20321;-61
2023/08/16 02:56:08;;;;;;;9.45;7.10;;;;;;;-141.84;100.00;20419.53;5041035;28;20363;-60
2023/08/16 02:58:37;;;;;;;8.80;7.50;;;;;;;-141.84;100.00;20387.00;5045131;28;20313;-60
2023/08/16 03:01:05;;;;;;;9.50;7.20;;;;;;;-141.84;100.00;20417.50;5045476;28;20240;-62
2023/08/16 03:03:34;;;;;;;7.20;6.50;;;;;;;-141.84;100.00;20415.47;5045851;28;20245;-60
2023/08/16 03:06:04;;;;;;;7.75;6.50;;;;;;;-141.84;100.00;20380.91;5037553;28;20279;-61
2023/08/16 03:08:33;;;;;;;6.50;5.90;;;;;;;-141.84;100.00;20391.06;5052931;28;20228;-61
2023/08/16 03:11:01;;;;;;;6.78;6.07;;;;;;;-141.84;100.00;20407.34;5065156;28;20271;-60
2023/08/16 03:13:30;;;;;;;8.48;6.60;;;;;;;-141.84;100.00;20356.50;5064866;28;20255;-60
2023/08/16 03:15:58;;;;;;;8.32;5.70;;;;;;;-141.84;100.00;20350.41;5057580;28;20743;-59
2023/08/16 03:18:27;;;;;;;6.18;5.57;;;;;;;-141.84;100.00;20309.75;5065554;28;20318;-61
2023/08/16 03:20:55;;;;;;;6.55;5.93;;;;;;;-141.84;100.00;20279.28;5064532;28;20247;-59
2023/08/16 03:23:25;;;;;;;7.30;6.60;;;;;;;-141.84;100.00;20281.31;5064765;28;20225;-60
2023/08/16 03:25:53;;;;;;;7.20;5.80;;;;;;;-141.84;100.00;20258.94;5044410;28;20460;-60
2023/08/16 03:28:22;;;;;;;6.85;5.97;;;;;;;-141.84;100.00;20267.09;5045050;28;20304;-59
2023/08/16 03:30:50;;;;;;;6.22;5.63;;;;;;;-141.84;100.00;20252.84;5057887;28;20267;-59
2023/08/16 03:33:19;;;;;;;6.28;5.63;;;;;;;-141.84;100.00;20208.13;5057610;28;20237;-60
2023/08/16 03:35:47;;;;;;;9.32;6.07;;;;;;;-141.84;100.00;20238.63;5037826;28;20321;-61
2023/08/16 03:38:16;;;;;;;6.20;5.60;;;;;;;-141.84;100.00;20202.03;5045098;28;20267;-60
2023/08/16 03:40:46;;;;;;;8.32;6.43;;;;;;;-141.84;100.00;20202.03;5045069;28;20264;-60
2023/08/16 03:43:15;;;;;;;9.93;8.35;;;;;;;-141.84;100.00;20212.19;5044366;28;20216;-60
2023/08/16 03:45:43;;;;;;;9.48;8.35;;;;;;;-141.84;100.00;20210.16;5042658;28;20299;-60
2023/08/16 03:48:11;;;;;;;10.40;8.95;;;;;;;-141.84;100.00;20208.13;5043897;28;20313;-60
2023/08/16 03:50:40;;;;;;;11.55;10.35;;;;;;;-141.84;100.00;20246.75;5044180;28;20371;-60
2023/08/16 03:53:09;;;;;;;12.85;9.63;;;;;;;-141.84;100.00;20281.31;5044265;28;20232;-60
2023/08/16 03:55:37;;;;;;;12.93;11.50;;;;;;;-141.84;100.00;20368.72;5044126;28;20320;-60
2023/08/16 03:58:07;;;;;;;14.07;11.90;;;;;;;-141.84;100.00;20391.06;5036446;28;20233;-64
2023/08/16 04:00:35;;;;;;;13.35;11.15;;;;;;;-141.84;100.00;20389.03;5044797;28;20236;-66
2023/08/16 04:03:05;;;;;;;12.68;11.30;;;;;;;-141.84;100.00;20403.25;5044186;28;20225;-64
2023/08/16 04:05:34;;;;;;;12.07;10.60;;;;;;;-141.84;100.00;20431.72;5058108;28;20228;-64
2023/08/16 04:08:03;;;;;;;14.32;12.75;;;;;;;-141.84;100.00;20450.03;5056603;28;20575;-64
2023/08/16 04:10:32;;;;;;;13.63;11.15;;;;;;;-141.84;100.00;20462.22;5063900;28;20313;-64
2023/08/16 04:13:00;;;;;;;16.98;13.52;;;;;;;-141.84;100.00;20523.19;5063753;28;20270;-66
2023/08/16 04:15:30;;;;;;;18.42;14.45;;;;;;;-141.84;100.00;20578.09;5064514;28;20296;-65
2023/08/16 04:17:59;;;;;;;16.63;14.32;;;;;;;-141.84;99.66;20630.94;5055912;28;20327;-66
2023/08/16 04:20:28;;;;;;;17.77;14.68;;;;;;;-141.84;99.21;20614.66;5063903;28;20224;-64
2023/08/16 04:22:56;;;;;;;16.10;13.52;;;;;;;-141.84;99.10;20610.59;5050417;28;20225;-63
2023/08/16 04:25:25;;;;;;;13.48;11.88;;;;;;;-141.84;99.46;20602.47;5042979;28;20610;-63
2023/08/16 04:27:53;;;;;;;17.35;14.43;;;;;;;-141.84;99.62;20610.59;5036380;28;20245;-64
2023/08/16 04:30:22;;;;;;;19.70;15.82;;;;;;;-141.84;99.46;20612.63;5052517;28;20607;-63
2023/08/16 04:32:52;;;;;;;18.17;15.80;;;;;;;-141.84;98.38;20632.97;5060826;28;20231;-63
2023/08/16 04:35:20;;;;;;;19.30;15.23;;;;;;;-141.84;98.16;20602.47;5043412;28;20283;-64
2023/08/16 04:37:49;;;;;;;18.33;14.85;;;;;;;-141.84;96.49;20687.84;5035960;28;20324;-64
2023/08/16 04:40:18;;;;;;;18.13;15.02;;;;;;;-141.84;96.15;20639.06;5043416;28;20229;-65
2023/08/16 04:42:46;;;;;;;17.02;13.45;;;;;;;-141.84;95.67;20695.97;5043674;28;20237;-65
2023/08/16 04:45:15;;;;;;;25.05;13.77;;;;;;;-141.84;95.44;20649.22;5043120;28;20229;-64
2023/08/16 04:47:44;;;;;;;18.42;13.57;;;;;;;-141.84;96.09;20655.31;5040150;28;20232;-66
2023/08/16 04:50:13;;;;;;;17.67;12.05;;;;;;;-141.84;95.99;20683.78;5042670;28;20228;-64
2023/08/16 04:52:42;;;;;;;15.15;11.45;;;;;;;-141.84;96.19;20635.00;5042561;28;20229;-64
2023/08/16 04:55:11;;;;;;;16.35;11.85;;;;;;;-141.84;96.29;20679.72;5042859;28;20209;-64
2023/08/16 04:57:39;;;;;;;16.75;11.65;;;;;;;-141.84;96.08;20663.47;5043609;28;20287;-64
2023/08/16 05:00:10;;;;;;;15.20;10.55;;;;;;;-141.84;96.04;20667.53;5036873;28;20226;-64
2023/08/16 05:02:39;;;;;;;12.02;10.55;;;;;;;-141.84;96.26;20659.38;5042754;28;20237;-64
2023/08/16 05:05:08;;;;;;;14.13;11.38;;;;;;;-141.84;96.32;20663.47;5042959;28;20263;-64
2023/08/16 05:07:38;;;;;;;11.38;9.50;;;;;;;-141.84;96.31;20659.38;5043040;28;20328;-64
2023/08/16 05:10:07;;;;;;;15.70;11.48;;;;;;;-141.84;96.47;20657.34;5035398;28;22203;-65
2023/08/16 05:12:35;;;;;;;15.63;11.18;;;;;;;-141.84;96.13;20663.47;5043205;28;20700;-63
2023/08/16 05:15:04;;;;;;;15.82;10.68;;;;;;;-141.84;95.76;20732.56;5043216;28;20229;-65
2023/08/16 05:17:33;;;;;;;14.38;11.68;;;;;;;-141.84;95.15;20700.03;5042252;28;20256;-63
2023/08/16 05:20:02;;;;;;;16.08;11.20;;;;;;;-141.84;94.49;20704.13;5035004;28;20233;-64
2023/08/16 05:22:31;;;;;;;13.02;10.95;;;;;;;-141.84;94.17;20726.47;5043086;28;20324;-63
2023/08/16 05:25:01;;;;;;;13.55;11.07;;;;;;;-141.84;93.98;20706.16;5042454;28;20262;-64
2023/08/16 05:27:29;;;;;;;12.48;10.57;;;;;;;-141.84;94.20;20708.19;5043315;28;20682;-63
2023/08/16 05:29:59;;;;;;;13.43;11.98;;;;;;;-141.84;94.15;20716.31;5041118;28;20642;-63
2023/08/16 05:32:28;;;;;;;11.55;9.95;;;;;;;-141.84;94.06;20736.63;5062506;28;20260;-65
2023/08/16 05:34:56;;;;;;;15.60;12.63;;;;;;;-141.84;94.20;20716.31;5022372;28;20275;-64
2023/08/16 05:37:25;;;;;;;14.82;12.15;;;;;;;-141.84;93.85;20714.28;5022655;28;20253;-65
2023/08/16 05:39:54;;;;;;;12.40;10.43;;;;;;;-141.84;92.46;20724.44;5018510;28;20197;-64
2023/08/16 05:42:26;;;;;;;16.20;12.73;;;;;;;-141.84;92.20;20756.97;5022968;28;20218;-65
2023/08/16 05:44:54;;;;;;;16.08;11.65;;;;;;;-141.84;92.23;20748.84;5022925;28;20277;-64
2023/08/16 05:47:23;;;;;;;17.23;14.13;;;;;;;-141.84;91.98;20752.91;5034143;28;20696;-64
2023/08/16 05:49:52;;;;;;;15.25;11.88;;;;;;;-141.84;91.42;20773.22;5034877;28;20236;-64
2023/08/16 05:52:20;;;;;;;18.90;15.02;;;;;;;-141.84;90.96;20781.38;5042962;28;20232;-65
2023/08/16 05:54:48;;;;;;;14.48;12.25;;;;;;;-141.84;91.37;20789.50;5042580;28;20219;-64
2023/08/16 05:57:17;;;;;;;17.85;13.88;;;;;;;-141.84;90.39;20872.84;5049966;28;20604;-66
2023/08/16 05:59:47;;;;;;;15.48;12.63;;;;;;;-141.84;90.02;20883.00;5055031;28;20266;-63
2023/08/16 06:02:16;;;;;;;16.55;12.45;;;;;;;-141.84;89.46;20952.13;5062204;28;20335;-64
2023/08/16 06:04:45;;;;;;;16.58;13.93;;;;;;;-141.84;88.32;20972.47;5043745;28;20243;-64
2023/08/16 06:07:14;;;;;;;14.73;12.60;;;;;;;-141.84;86.92;20982.63;5042232;28;20676;-64
2023/08/16 06:09:42;;;;;;;12.75;11.27;;;;;;;-141.84;86.04;20984.66;5040994;28;20315;-64
2023/08/16 06:12:10;;;;;;;13.05;11.63;;;;;;;-141.84;85.59;20978.56;5042704;28;20315;-64
2023/08/16 06:14:39;;;;;;;15.07;11.90;;;;;;;-141.84;84.61;20988.72;5045332;28;20645;-64
2023/08/16 06:17:09;;;;;;;14.98;11.95;;;;;;;-141.84;81.75;21092.41;5045804;28;20896;-64
2023/08/16 06:19:37;;;;;;;12.30;11.10;;;;;;;-141.84;81.89;21059.88;5045635;28;20260;-66
2023/08/16 06:22:06;;;;;;;11.32;10.20;;;;;;;-141.84;83.77;21041.56;5023478;28;20234;-64
2023/08/16 06:24:35;;;;;;;12.45;11.15;;;;;;;-141.84;84.71;21053.78;5028117;28;20214;-64
2023/08/16 06:27:04;;;;;;;15.18;12.48;;;;;;;-141.84;82.85;21106.63;5046118;28;20251;-64
2023/08/16 06:29:32;;;;;;;12.63;11.25;;;;;;;-141.84;83.47;21065.97;5047958;28;20251;-63
2023/08/16 06:32:00;;;;;;;14.63;12.07;;;;;;;-141.84;83.44;21065.97;5058182;28;20411;-64
2023/08/16 06:34:30;;;;;;;12.73;11.38;;;;;;;-141.84;82.99;21065.97;5049276;28;20228;-65
2023/08/16 06:36:59;;;;;;;11.98;10.68;;;;;;;-141.84;84.00;21057.84;5045526;28;20204;-65
2023/08/16 06:39:27;;;;;;;13.50;11.50;;;;;;;-141.84;84.53;21055.81;5045981;28;20202;-65
2023/08/16 06:41:55;;;;;;;12.88;11.48;;;;;;;-141.84;85.05;21011.09;5038056;28;20232;-64
2023/08/16 06:44:24;;;;;;;11.95;10.73;;;;;;;-141.84;85.13;21009.03;5045550;28;20236;-64
2023/08/16 06:46:52;;;;;;;10.75;9.65;;;;;;;-141.84;85.42;21039.53;5045517;28;20704;-64
2023/08/16 06:49:22;;;;;;;13.07;11.68;;;;;;;-141.84;85.06;21045.63;5045232;28;20715;-65
2023/08/16 06:51:51;;;;;;;13.88;12.48;;;;;;;-141.84;84.56;21080.19;5037642;28;20696;-65
2023/08/16 06:54:20;;;;;;;12.63;11.32;;;;;;;-141.84;84.28;21124.94;5059061;28;20235;-64
2023/08/16 06:56:49;;;;;;;11.90;10.70;;;;;;;-141.84;83.77;21159.50;5065519;28;20727;-65
2023/08/16 06:59:17;;;;;;;11.88;10.68;;;;;;;-141.84;80.94;21190.00;5065329;28;20280;-65
2023/08/16 07:01:46;;;;;;;11.93;10.73;;;;;;;-141.84;80.79;21261.16;5057612;28;20228;-64
2023/08/16 07:04:14;;;;;;;11.80;10.43;;;;;;;-141.84;79.99;21246.91;5051261;28;20304;-65
2023/08/16 07:06:43;;;;;;;13.05;11.75;;;;;;;-141.84;79.33;21267.25;5045476;28;20300;-65
2023/08/16 07:09:12;;;;;;;12.98;11.68;;;;;;;-141.84;77.07;21356.69;5044385;28;20233;-64
2023/08/16 07:11:41;;;;;;;12.25;10.98;;;;;;;-141.84;77.46;21454.28;5045216;28;20233;-65
2023/08/16 07:14:09;;;;;;;11.70;10.25;;;;;;;-141.84;75.86;21513.25;5042162;28;20679;-65
2023/08/16 07:16:39;;;;;;;9.50;8.60;;;;;;;-141.84;73.27;21578.31;5044277;28;20231;-64
2023/08/16 07:19:09;;;;;;;9.55;8.65;;;;;;;-141.84;72.90;21631.19;5025190;28;20202;-65
2023/08/16 07:21:38;;;;;;;9.85;8.93;;;;;;;-141.84;72.46;21649.50;5024672;28;20202;-64
2023/08/16 07:24:08;;;;;;;10.80;9.70;;;;;;;-141.84;72.50;21706.44;5029605;28;20328;-64
2023/08/16 07:26:38;;;;;;;9.90;8.90;;;;;;;-141.84;71.86;21667.78;5041796;28;20316;-63
2023/08/16 07:29:07;;;;;;;9.45;8.60;;;;;;;-141.84;70.87;21680.00;5039181;28;20316;-68
2023/08/16 07:31:35;;;;;;;10.55;8.93;;;;;;;-141.84;72.00;21606.78;5042335;28;20338;-65
2023/08/16 07:34:04;;;;;;;8.70;7.80;;;;;;;-141.84;72.64;21631.19;5032279;28;20228;-68
2023/08/16 07:36:33;;;;;;;8.63;6.93;;;;;;;-141.84;72.03;21728.78;5038525;28;20217;-64
2023/08/16 07:39:02;;;;;;;9.95;8.95;;;;;;;-141.84;70.17;21753.19;5041010;28;20711;-65
2023/08/16 07:41:31;;;;;;;10.07;9.07;;;;;;;-141.84;69.80;21795.88;5042682;28;20602;-66
2023/08/16 07:44:00;;;;;;;8.82;8.02;;;;;;;-141.84;70.07;21747.09;5034471;28;20650;-67
2023/08/16 07:46:29;;;;;;;8.15;7.35;;;;;;;-141.84;71.91;21694.22;5050370;28;20198;-65
2023/08/16 07:48:58;;;;;;;10.60;8.85;;;;;;;-141.84;70.68;21682.03;5050421;28;20217;-66
2023/08/16 07:51:28;;;;;;;9.40;8.38;;;;;;;-141.84;70.57;21716.59;5048189;28;20281;-63
2023/08/16 07:53:56;;;;;;;8.73;7.82;;;;;;;-141.84;70.71;21755.22;5046446;28;20197;-65
2023/08/16 07:56:24;;;;;;;9.32;8.32;;;;;;;-141.84;70.01;21791.81;5050024;28;20290;-65
2023/08/16 07:58:53;;;;;;;10.70;9.70;;;;;;;-141.84;70.07;21773.53;5049663;28;20324;-64
2023/08/16 08:01:23;;;;;;;11.70;10.05;;;;;;;-141.84;68.13;21881.28;5049823;28;20289;-64
2023/08/16 08:03:52;;;;;;;11.50;10.40;;;;;;;-141.84;67.37;21917.91;5039148;28;20229;-66
2023/08/16 08:06:20;;;;;;;13.07;11.63;;;;;;;-141.84;65.67;22031.78;5040744;28;20707;-64
2023/08/16 08:08:49;;;;;;;11.93;10.65;;;;;;;-141.84;65.89;22033.81;5040619;28;20228;-64
2023/08/16 08:11:17;;;;;;;10.90;9.88;;;;;;;-141.84;66.48;22023.63;5040615;28;20700;-65
2023/08/16 08:13:46;;;;;;;9.68;8.77;;;;;;;-141.84;65.52;22054.13;5040375;28;20325;-65
2023/08/16 08:16:14;;;;;;;9.23;8.30;;;;;;;-141.84;66.23;22039.91;5040661;28;20225;-65
2023/08/16 08:18:44;;;;;;;9.40;8.40;;;;;;;-141.84;66.55;21987.03;5040789;28;20805;-66
2023/08/16 08:21:12;;;;;;;9.80;8.80;;;;;;;-141.84;66.51;22019.56;5040221;28;20328;-66
2023/08/16 08:23:41;;;;;;;8.95;7.95;;;;;;;-141.84;65.37;22088.72;5032520;28;20326;-65
2023/08/16 08:26:11;;;;;;;7.35;6.65;;;;;;;-141.84;64.60;22216.81;5040469;28;20201;-66
2023/08/16 08:28:40;;;;;;;5.78;5.28;;;;;;;-141.84;63.87;22243.25;5040761;28;20205;-66
2023/08/16 08:31:08;;;;;;;6.60;5.93;;;;;;;-141.84;62.98;22367.31;5056325;28;20236;-66
2023/08/16 08:33:37;;;;;;;6.70;6.00;;;;;;;-141.84;63.21;22294.09;5043202;28;20658;-66
2023/08/16 08:36:07;;;;;;;6.50;5.90;;;;;;;-141.84;64.46;22208.69;5039236;28;20229;-66
2023/08/16 08:38:36;;;;;;;9.18;6.30;;;;;;;-141.84;64.91;22168.03;5040400;28;20231;-66
2023/08/16 08:41:06;;;;;;;7.03;6.00;;;;;;;-141.84;65.11;22107.00;5040642;28;20751;-66
2023/08/16 08:43:37;;;;;;;6.10;5.60;;;;;;;-141.84;65.01;22143.63;5032831;28;20212;-67
2023/08/16 08:46:26;;;;;;;5.90;5.40;;;;;;;-141.84;65.06;22139.56;5040225;28;20217;-66
2023/08/16 08:48:55;;;;;;;6.00;5.50;;;;;;;-141.84;64.96;22204.63;5039771;28;20327;-67
2023/08/16 08:51:29;;;;;;;6.65;5.53;;;;;;;-141.84;64.10;22204.63;5031134;28;20221;-65
2023/08/16 08:53:58;;;;;;;6.07;5.53;;;;;;;-141.84;64.83;22188.34;5041200;28;20229;-65
2023/08/16 08:56:29;;;;;;;6.65;6.03;;;;;;;-141.84;65.91;22102.94;5033751;28;20296;-68
2023/08/16 08:59:02;;;;;;;6.68;5.97;;;;;;;-141.84;65.77;22088.72;5021328;28;20221;-63
2023/08/16 09:01:43;;;;;;;7.25;6.55;;;;;;;-141.84;67.03;21982.97;5014511;28;20241;-62
2023/08/16 09:04:14;;;;;;;6.53;5.93;;;;;;;-141.84;67.89;22050.06;5021050;28;20222;-63
2023/08/16 09:06:44;;;;;;;8.57;7.15;;;;;;;-141.84;64.77;22163.94;5032712;28;20595;-66
2023/08/16 09:09:13;;;;;;;7.80;7.10;;;;;;;-141.84;64.27;22192.44;5041135;28;21530;-63
2023/08/16 09:11:42;;;;;;;6.95;6.28;;;;;;;-141.84;64.65;22176.16;5027464;28;20237;-66
2023/08/16 09:14:11;;;;;;;6.88;6.13;;;;;;;-141.84;64.42;22212.75;5039351;28;20658;-66
2023/08/16 09:16:40;;;;;;;7.15;6.45;;;;;;;-141.84;64.27;22220.91;5040581;28;20282;-66
2023/08/16 09:19:14;;;;;;;6.30;5.70;;;;;;;-141.84;62.53;22308.34;5041263;28;20227;-66
2023/08/16 09:21:44;;;;;;;6.72;6.13;;;;;;;-141.84;62.96;22288.00;5031541;28;20643;-65
2023/08/16 09:24:12;;;;;;;6.25;5.75;;;;;;;-141.84;63.15;22259.53;5038056;28;20312;-64
2023/08/16 09:26:42;;;;;;;6.85;6.20;;;;;;;-141.84;62.50;22389.69;5038238;28;20304;-65
2023/08/16 09:29:12;;;;;;;6.28;5.68;;;;;;;-141.84;62.66;22428.31;5041093;28;20228;-65
2023/08/16 09:31:42;;;;;;;6.22;5.63;;;;;;;-141.84;62.68;22381.56;5034310;28;20703;-65
2023/08/16 09:34:13;;;;;;;5.80;5.30;;;;;;;-141.84;63.89;22267.66;5039420;28;20229;-63
2023/08/16 09:36:47;;;;;;;5.80;5.00;;;;;;;-141.84;64.46;22237.16;5039704;28;20245;-64
2023/08/16 09:39:16;;;;;;;5.50;5.00;;;;;;;-141.84;63.93;22302.25;5037458;28;20252;-64
2023/08/16 09:41:50;;;;;;;5.47;4.97;;;;;;;-141.84;63.71;22267.66;5033742;28;20236;-67
2023/08/16 09:44:19;;;;;;;6.60;5.10;;;;;;;-141.84;63.97;22277.84;5040901;28;20257;-66
2023/08/16 09:46:48;;;;;;;6.10;5.60;;;;;;;-141.84;63.61;22222.94;5043111;28;20260;-68
2023/08/16 09:49:23;;;;;;;5.47;4.97;;;;;;;-141.84;64.53;22210.72;5035094;28;20217;-64
2023/08/16 09:51:53;;;;;;;5.18;4.78;;;;;;;-141.84;63.64;22304.28;5044857;28;20239;-65
2023/08/16 09:54:25;;;;;;;5.90;5.40;;;;;;;-141.84;62.84;22344.94;5046018;28;20224;-66
2023/08/16 09:56:54;;;;;;;5.22;4.82;;;;;;;-141.84;63.21;22359.19;5042765;28;20230;-65
2023/08/16 09:59:27;;;;;;;3.97;3.67;;;;;;;-141.84;61.89;22432.41;5038375;28;20227;-65
2023/08/16 10:02:00;;;;;;;4.18;3.88;;;;;;;-141.84;60.51;22523.91;5050217;28;20297;-66
2023/08/16 10:04:32;;;;;;;3.88;3.58;;;;;;;-141.84;60.38;22586.97;5044592;28;20225;-66
2023/08/16 10:07:07;;;;;;;4.22;3.88;;;;;;;-141.84;60.49;22613.41;5044881;28;20251;-65
2023/08/16 10:09:38;;;;;;;4.47;4.07;;;;;;;-141.84;59.61;22625.59;5036126;28;20311;-66
2023/08/16 10:12:08;;;;;;;4.10;3.80;;;;;;;-141.84;59.97;22637.81;5040840;28;20348;-66
2023/08/16 10:14:37;;;;;;;5.10;4.65;;;;;;;-141.84;59.95;22652.03;5041585;28;20264;-65
2023/08/16 10:17:08;;;;;;;4.97;4.40;;;;;;;-141.84;60.43;22641.88;5042126;28;20575;-67
2023/08/16 10:19:40;;;;;;;4.93;4.35;;;;;;;-141.84;60.43;22544.25;5036810;28;20292;-66
2023/08/16 10:22:20;;;;;;;4.70;4.30;;;;;;;-141.84;58.51;22772.03;5033389;28;20600;-67
2023/08/16 10:25:10;;;;;;;4.47;4.07;;;;;;;-141.84;59.59;22749.66;5021388;28;20241;-66
2023/08/16 10:27:42;;;;;;;4.28;3.85;;;;;;;-141.84;57.69;22859.50;5013117;28;20229;-68
2023/08/16 10:30:17;;;;;;;4.05;3.50;;;;;;;-141.84;57.83;22908.31;5023064;28;20704;-65
2023/08/16 10:32:48;;;;;;;4.00;3.70;;;;;;;-141.84;57.85;22983.56;5019942;28;20592;-65
2023/08/16 10:35:17;;;;;;;3.85;3.55;;;;;;;-141.84;58.21;22995.78;5025935;28;20260;-66
2023/08/16 10:37:48;;;;;;;4.82;3.95;;;;;;;-141.84;58.21;22981.53;5043202;28;20231;-67
2023/08/16 10:40:18;;;;;;;3.53;3.22;;;;;;;-141.84;57.37;22953.06;5042951;28;20241;-67
2023/08/16 10:42:54;;;;;;;4.07;3.78;;;;;;;-141.84;57.46;22932.72;5045490;28;20233;-66
2023/08/16 10:45:24;;;;;;;3.63;3.33;;;;;;;-141.84;58.18;22841.19;5026173;28;20709;-67
2023/08/16 10:47:54;;;;;;;4.00;3.70;;;;;;;-141.84;59.29;22761.88;5022904;28;20340;-65
2023/08/16 10:50:32;;;;;;;3.70;3.20;;;;;;;-141.84;58.91;22810.69;5027110;28;20318;-66
2023/08/16 10:53:03;;;;;;;3.75;3.45;;;;;;;-141.84;59.16;22745.59;5043174;28;20260;-67
2023/08/16 10:55:31;;;;;;;4.28;3.85;;;;;;;-141.84;58.99;22704.94;5035346;28;20296;-66
2023/08/16 10:58:00;;;;;;;4.25;3.90;;;;;;;-141.84;59.50;22680.53;5041247;28;20264;-66
2023/08/16 11:00:39;;;;;;;4.28;3.95;;;;;;;-141.84;59.49;22686.63;5042707;28;20217;-66
2023/08/16 11:03:19;;;;;;;4.20;3.80;;;;;;;-141.84;59.62;22735.44;5043635;28;20263;-66
2023/08/16 11:05:48;;;;;;;4.18;3.63;;;;;;;-141.84;59.83;22743.56;5043369;28;20229;-66
2023/08/16 11:08:18;;;;;;;4.45;3.80;;;;;;;-141.84;58.99;22802.56;5040367;28;20228;-67
2023/08/16 11:10:47;;;;;;;3.85;3.55;;;;;;;-141.84;58.36;22826.97;5040928;28;20402;-66
2023/08/16 11:13:15;;;;;;;4.22;3.75;;;;;;;-141.84;59.29;22822.88;5037134;28;20213;-66
2023/08/16 11:15:44;;;;;;;4.72;3.83;;;;;;;-141.84;57.34;22877.81;5034534;28;20239;-66
2023/08/16 11:18:12;;;;;;;4.47;3.90;;;;;;;-141.84;58.28;22826.97;5043133;28;20227;-68
2023/08/16 11:20:45;;;;;;;3.78;3.47;;;;;;;-141.84;58.07;22892.03;5042130;28;20225;-67